Time;durP1;ratioP1;P1;durP2;ratioP2;P2;SDS_P1;SDS_P2;PMS_P1;PMS_P2;Temp;Humidity;BMP_temperature;BMP_pressure;BME280_temperature;BME280_humidity;BME280_pressure;Samples;Min_cycle;Max_cycle;Signal;HPM_P1;HPM_P2
2022/06/16 00:00:38;;;;;;;4.90;2.70;;;;;;;;;;5086531;28;20236;-51
2022/06/16 00:03:05;;;;;;;5.17;2.70;;;;;;;;;;5103327;28;20540;-51
2022/06/16 00:05:35;;;;;;;3.37;2.87;;;;;;;;;;5086406;28;20240;-52
2022/06/16 00:08:03;;;;;;;3.50;3.20;;;;;;;;;;5104624;28;20182;-51
2022/06/16 00:10:29;;;;;;;4.30;3.20;;;;;;;;;;5105143;28;20264;-52
2022/06/16 00:12:55;;;;;;;2.77;2.60;;;;;;;;;;5105640;28;20491;-51
2022/06/16 00:15:23;;;;;;;5.37;3.40;;;;;;;;;;5108944;28;20626;-51
2022/06/16 00:17:49;;;;;;;3.93;3.23;;;;;;;;;;5087288;28;20248;-52
2022/06/16 00:20:16;;;;;;;5.47;3.03;;;;;;;;;;5108136;28;20202;-51
2022/06/16 00:22:43;;;;;;;3.93;3.53;;;;;;;;;;5093841;28;20180;-52
2022/06/16 00:25:10;;;;;;;4.23;3.13;;;;;;;;;;5089369;28;20797;-51
2022/06/16 00:27:37;;;;;;;3.00;2.70;;;;;;;;;;5088380;28;20198;-52
2022/06/16 00:30:04;;;;;;;3.33;2.90;;;;;;;;;;5088527;28;20721;-51
2022/06/16 00:32:30;;;;;;;4.00;2.70;;;;;;;;;;5088307;28;20183;-51
2022/06/16 00:34:57;;;;;;;3.60;2.90;;;;;;;;;;5106819;28;20608;-51
2022/06/16 00:37:23;;;;;;;4.03;3.03;;;;;;;;;;5090187;28;20699;-51
2022/06/16 00:39:49;;;;;;;3.20;3.00;;;;;;;;;;5089458;28;20279;-52
2022/06/16 00:42:17;;;;;;;3.27;3.07;;;;;;;;;;5090102;28;20285;-51
2022/06/16 00:44:44;;;;;;;5.20;3.13;;;;;;;;;;5105710;28;20247;-51
2022/06/16 00:47:13;;;;;;;4.50;3.17;;;;;;;;;;5106275;28;20598;-52
2022/06/16 00:49:42;;;;;;;3.20;2.90;;;;;;;;;;5089970;28;20206;-51
2022/06/16 00:52:16;;;;;;;3.10;2.63;;;;;;;;;;5108339;28;20207;-51
2022/06/16 00:54:54;;;;;;;4.03;3.33;;;;;;;;;;5087319;28;20194;-51
2022/06/16 00:57:26;;;;;;;6.50;3.73;;;;;;;;;;5062822;28;20558;-52
2022/06/16 00:59:52;;;;;;;5.00;3.43;;;;;;;;;;5061209;28;20192;-51
2022/06/16 01:02:19;;;;;;;3.03;2.70;;;;;;;;;;5065620;28;20707;-51
2022/06/16 01:04:52;;;;;;;4.67;3.20;;;;;;;;;;5054693;28;20476;-52
2022/06/16 01:07:21;;;;;;;4.00;3.10;;;;;;;;;;5065812;28;20236;-52
2022/06/16 01:09:47;;;;;;;3.17;2.90;;;;;;;;;;5067076;28;20210;-51
2022/06/16 01:15:55;;;;;;;3.23;2.90;;;;;;;;;;5064777;28;20261;-51
2022/06/16 01:18:22;;;;;;;3.20;2.73;;;;;;;;;;5079288;28;20188;-50
2022/06/16 01:20:55;;;;;;;3.00;2.80;;;;;;;;;;5093093;28;20210;-51
2022/06/16 01:23:30;;;;;;;4.17;3.30;;;;;;;;;;5046684;28;20180;-52
2022/06/16 01:26:07;;;;;;;4.20;3.20;;;;;;;;;;5061650;28;20254;-51
2022/06/16 01:28:52;;;;;;;3.57;2.80;;;;;;;;;;5066592;28;20604;-52
2022/06/16 01:31:25;;;;;;;3.67;3.20;;;;;;;;;;5064128;28;20320;-51
2022/06/16 01:33:57;;;;;;;3.13;2.80;;;;;;;;;;5076734;28;20196;-52
2022/06/16 01:36:31;;;;;;;5.03;3.30;;;;;;;;;;5065214;28;20179;-51
2022/06/16 01:39:17;;;;;;;4.10;2.90;;;;;;;;;;5067818;28;20161;-51
2022/06/16 01:41:48;;;;;;;2.77;2.53;;;;;;;;;;5060072;28;20554;-51
2022/06/16 01:44:18;;;;;;;3.70;3.30;;;;;;;;;;5053732;28;20189;-52
2022/06/16 01:46:46;;;;;;;3.13;2.80;;;;;;;;;;5061775;28;20242;-52
2022/06/16 01:49:19;;;;;;;3.63;2.73;;;;;;;;;;5065134;28;20643;-51
2022/06/16 01:51:51;;;;;;;3.07;2.80;;;;;;;;;;5057924;28;20227;-51
2022/06/16 01:54:28;;;;;;;3.20;2.90;;;;;;;;;;5063883;28;20190;-51
2022/06/16 01:57:03;;;;;;;3.07;2.60;;;;;;;;;;5065975;28;20227;-51
2022/06/16 01:59:36;;;;;;;3.10;2.80;;;;;;;;;;5069308;28;20267;-52
2022/06/16 02:02:06;;;;;;;3.10;2.80;;;;;;;;;;5073386;28;20180;-51
2022/06/16 02:04:52;;;;;;;3.40;3.03;;;;;;;;;;5085248;28;20266;-52
2022/06/16 02:07:22;;;;;;;3.67;3.23;;;;;;;;;;5082532;28;20608;-52
2022/06/16 02:09:50;;;;;;;3.43;2.70;;;;;;;;;;5073160;28;20206;-52
2022/06/16 02:15:10;;;;;;;3.43;3.20;;;;;;;;;;5094658;28;20308;-52
2022/06/16 02:17:36;;;;;;;3.60;2.90;;;;;;;;;;5061462;28;20192;-52
2022/06/16 02:20:02;;;;;;;3.13;2.83;;;;;;;;;;5068473;28;20184;-51
2022/06/16 02:22:31;;;;;;;3.60;3.07;;;;;;;;;;5066011;28;20757;-51
2022/06/16 02:24:57;;;;;;;6.00;3.27;;;;;;;;;;5084876;28;20204;-52
2022/06/16 02:27:23;;;;;;;2.60;2.40;;;;;;;;;;5082823;28;20191;-52
2022/06/16 02:29:49;;;;;;;2.87;2.63;;;;;;;;;;5067753;28;20666;-52
2022/06/16 02:32:19;;;;;;;2.93;2.63;;;;;;;;;;5069453;28;20654;-51
2022/06/16 02:34:55;;;;;;;2.90;2.67;;;;;;;;;;5070923;28;20198;-52
2022/06/16 02:37:39;;;;;;;3.93;3.43;;;;;;;;;;5088752;28;20183;-52
2022/06/16 02:40:12;;;;;;;4.70;2.60;;;;;;;;;;5073989;28;20187;-51
2022/06/16 02:42:51;;;;;;;2.90;2.60;;;;;;;;;;5085226;28;20301;-52
2022/06/16 02:45:18;;;;;;;3.37;2.83;;;;;;;;;;5095707;28;20709;-52
2022/06/16 02:48:03;;;;;;;2.70;2.50;;;;;;;;;;5059469;28;20731;-52
2022/06/16 02:50:50;;;;;;;2.93;2.73;;;;;;;;;;5078218;28;20215;-52
2022/06/16 02:56:07;;;;;;;3.80;3.43;;;;;;;;;;5084542;28;20642;-52
2022/06/16 02:58:36;;;;;;;3.30;2.70;;;;;;;;;;5086445;28;20586;-51
2022/06/16 03:01:05;;;;;;;2.80;2.60;;;;;;;;;;5090907;28;20212;-51
2022/06/16 03:03:36;;;;;;;2.80;2.60;;;;;;;;;;5086247;28;20182;-51
2022/06/16 03:06:06;;;;;;;3.40;2.80;;;;;;;;;;5083363;28;20189;-51
2022/06/16 03:08:34;;;;;;;2.93;2.63;;;;;;;;;;5067335;28;20281;-51
2022/06/16 03:11:01;;;;;;;3.40;3.10;;;;;;;;;;5067759;28;20299;-51
2022/06/16 03:13:32;;;;;;;2.87;2.67;;;;;;;;;;5067201;28;20193;-51
2022/06/16 03:16:00;;;;;;;3.60;2.97;;;;;;;;;;5088035;28;20485;-51
2022/06/16 03:18:26;;;;;;;4.33;3.70;;;;;;;;;;5082457;28;20170;-51
2022/06/16 03:20:52;;;;;;;4.63;2.70;;;;;;;;;;5086997;28;20276;-51
2022/06/16 03:23:19;;;;;;;2.57;2.37;;;;;;;;;;5067911;28;20173;-51
2022/06/16 03:25:46;;;;;;;3.10;2.80;;;;;;;;;;5085646;28;20557;-51
2022/06/16 03:28:13;;;;;;;3.13;2.87;;;;;;;;;;5066690;28;20193;-51
2022/06/16 03:30:40;;;;;;;3.13;2.83;;;;;;;;;;5085413;28;20212;-51
2022/06/16 03:33:08;;;;;;;3.50;3.20;;;;;;;;;;5084934;28;20185;-52
2022/06/16 03:35:34;;;;;;;3.37;2.70;;;;;;;;;;5084352;28;20471;-51
2022/06/16 03:38:02;;;;;;;2.83;2.60;;;;;;;;;;5086949;28;20619;-52
2022/06/16 03:40:29;;;;;;;2.70;2.50;;;;;;;;;;5066405;28;20195;-51
2022/06/16 03:42:55;;;;;;;3.33;2.67;;;;;;;;;;5065142;28;20263;-51
2022/06/16 03:45:22;;;;;;;2.97;2.67;;;;;;;;;;5087899;28;20280;-51
2022/06/16 03:47:48;;;;;;;2.77;2.57;;;;;;;;;;5085824;28;20198;-52
2022/06/16 03:50:15;;;;;;;4.00;3.17;;;;;;;;;;5090069;28;20239;-51
2022/06/16 03:52:42;;;;;;;3.23;3.03;;;;;;;;;;5062979;28;20185;-51
2022/06/16 03:55:15;;;;;;;3.23;2.93;;;;;;;;;;5058931;28;20191;-51
2022/06/16 03:57:41;;;;;;;3.90;3.33;;;;;;;;;;5075425;28;20230;-51
2022/06/16 04:00:08;;;;;;;3.20;2.90;;;;;;;;;;5083530;28;20283;-51
2022/06/16 04:02:34;;;;;;;3.23;2.90;;;;;;;;;;5069771;28;20185;-51
2022/06/16 04:05:01;;;;;;;2.90;2.70;;;;;;;;;;5071247;28;20540;-51
2022/06/16 04:07:28;;;;;;;2.37;2.27;;;;;;;;;;5089969;28;20196;-51
2022/06/16 04:09:54;;;;;;;3.93;2.90;;;;;;;;;;5088828;28;20651;-52
2022/06/16 04:12:20;;;;;;;3.73;2.70;;;;;;;;;;5069987;28;20189;-51
2022/06/16 04:14:46;;;;;;;2.77;2.57;;;;;;;;;;5087896;28;20208;-51
2022/06/16 04:17:12;;;;;;;2.97;2.67;;;;;;;;;;5087289;28;20180;-51
2022/06/16 04:20:11;;;;;;;3.50;2.70;;;;;;;;;;5069433;28;20685;-51
2022/06/16 04:22:34;;;;;;;3.37;3.07;;;;;;;;;;5086016;28;20184;-51
2022/06/16 04:25:00;;;;;;;2.73;2.47;;;;;;;;;;5087456;28;20256;-51
2022/06/16 04:27:26;;;;;;;2.80;2.60;;;;;;;;;;5068959;28;20710;-51
2022/06/16 04:29:52;;;;;;;3.40;3.13;;;;;;;;;;5088028;28;20704;-51
2022/06/16 04:32:19;;;;;;;3.10;2.80;;;;;;;;;;5086630;28;20238;-51
2022/06/16 04:34:45;;;;;;;2.80;2.60;;;;;;;;;;5070688;28;20177;-52
2022/06/16 04:37:12;;;;;;;2.63;2.43;;;;;;;;;;5088452;28;20173;-52
2022/06/16 04:39:38;;;;;;;2.57;2.37;;;;;;;;;;5069508;28;20753;-52
2022/06/16 04:42:05;;;;;;;3.47;2.90;;;;;;;;;;5069200;28;20960;-51
2022/06/16 04:44:34;;;;;;;2.30;2.10;;;;;;;;;;5088792;28;20566;-51
2022/06/16 04:47:03;;;;;;;2.60;2.40;;;;;;;;;;5086856;28;20164;-51
2022/06/16 04:49:30;;;;;;;3.10;2.43;;;;;;;;;;5052855;28;20211;-51
2022/06/16 04:51:56;;;;;;;2.50;2.30;;;;;;;;;;5083396;28;20694;-51
2022/06/16 04:54:23;;;;;;;3.10;2.90;;;;;;;;;;5054138;28;20193;-52
2022/06/16 04:56:49;;;;;;;2.50;2.40;;;;;;;;;;5084253;28;20527;-51
2022/06/16 04:59:15;;;;;;;3.77;3.37;;;;;;;;;;5071135;28;20173;-51
2022/06/16 05:01:42;;;;;;;2.27;2.13;;;;;;;;;;5087206;28;20638;-50
2022/06/16 05:04:09;;;;;;;3.40;2.70;;;;;;;;;;5071659;28;20794;-51
2022/06/16 05:06:35;;;;;;;3.17;2.87;;;;;;;;;;5107666;28;20312;-51
2022/06/16 05:09:02;;;;;;;2.97;2.47;;;;;;;;;;5108989;28;20203;-51
2022/06/16 05:11:28;;;;;;;3.73;2.40;;;;;;;;;;5086377;28;20538;-52
2022/06/16 05:13:54;;;;;;;2.80;2.57;;;;;;;;;;5108425;28;20179;-50
2022/06/16 05:16:20;;;;;;;2.87;2.67;;;;;;;;;;5089385;28;20607;-51
2022/06/16 05:18:46;;;;;;;3.33;2.60;;;;;;;;;;5107927;28;20256;-51
2022/06/16 05:21:13;;;;;;;3.03;2.40;;;;;;;;;;5106901;28;20172;-54
2022/06/16 05:23:40;;;;;;;2.63;2.43;;;;;;;;;;5108484;28;20187;-51
2022/06/16 05:26:07;;;;;;;2.40;2.13;;;;;;;;;;5106475;28;20183;-51
2022/06/16 05:28:35;;;;;;;2.80;2.60;;;;;;;;;;5106274;28;20186;-52
2022/06/16 05:31:01;;;;;;;2.30;2.13;;;;;;;;;;5105736;28;20227;-51
2022/06/16 05:33:27;;;;;;;3.30;3.10;;;;;;;;;;5108757;28;20590;-51
2022/06/16 05:36:05;;;;;;;2.50;2.30;;;;;;;;;;5107660;28;20262;-51
2022/06/16 05:38:31;;;;;;;2.60;2.20;;;;;;;;;;5086776;28;20194;-50
2022/06/16 05:40:58;;;;;;;2.30;2.10;;;;;;;;;;5105426;28;20182;-52
2022/06/16 05:43:24;;;;;;;2.50;2.30;;;;;;;;;;5108578;28;20621;-51
2022/06/16 05:45:52;;;;;;;2.20;2.10;;;;;;;;;;5104068;28;20314;-51
2022/06/16 05:48:18;;;;;;;4.43;2.77;;;;;;;;;;5107622;28;20178;-51
2022/06/16 05:50:45;;;;;;;2.90;2.20;;;;;;;;;;5087804;28;20212;-52
2022/06/16 05:53:11;;;;;;;3.13;2.30;;;;;;;;;;5108287;28;20203;-52
2022/06/16 05:55:37;;;;;;;3.73;2.47;;;;;;;;;;5104983;28;20180;-52
2022/06/16 05:58:04;;;;;;;3.57;2.30;;;;;;;;;;5104619;28;20228;-52
2022/06/16 06:00:31;;;;;;;3.13;2.40;;;;;;;;;;5104773;28;20193;-51
2022/06/16 06:02:58;;;;;;;2.27;2.00;;;;;;;;;;5088047;28;20187;-52
2022/06/16 06:05:26;;;;;;;1.97;1.87;;;;;;;;;;5088617;28;20185;-52
2022/06/16 06:16:25;;;;;;;2.70;2.03;;;;;;;;;;5100701;28;20667;-53
2022/06/16 06:18:58;;;;;;;2.60;2.40;;;;;;;;;;5101107;28;20310;-52
2022/06/16 06:24:13;;;;;;;2.40;2.20;;;;;;;;;;5107236;28;20254;-52
2022/06/16 06:26:40;;;;;;;3.30;2.63;;;;;;;;;;5088339;28;20162;-52
2022/06/16 06:29:06;;;;;;;2.80;2.60;;;;;;;;;;5102914;28;20603;-51
2022/06/16 06:31:32;;;;;;;2.53;2.13;;;;;;;;;;5105572;28;20618;-52
2022/06/16 06:33:59;;;;;;;3.17;2.30;;;;;;;;;;5083070;28;20201;-52
2022/06/16 06:36:25;;;;;;;2.47;2.00;;;;;;;;;;5104387;28;20534;-52
2022/06/16 06:38:51;;;;;;;3.17;2.37;;;;;;;;;;5087438;28;20763;-51
2022/06/16 06:41:17;;;;;;;2.60;1.97;;;;;;;;;;5104752;28;20539;-52
2022/06/16 06:43:43;;;;;;;3.73;2.50;;;;;;;;;;5102842;28;20659;-52
2022/06/16 06:46:10;;;;;;;2.47;2.27;;;;;;;;;;5103156;28;20252;-52
2022/06/16 06:48:37;;;;;;;3.77;2.97;;;;;;;;;;5088921;28;20185;-54
2022/06/16 06:51:03;;;;;;;10.43;4.50;;;;;;;;;;5105939;28;20288;-53
2022/06/16 06:53:29;;;;;;;4.63;3.07;;;;;;;;;;5106069;28;20735;-53
2022/06/16 06:55:56;;;;;;;3.40;2.67;;;;;;;;;;5086095;28;20560;-53
2022/06/16 06:58:23;;;;;;;4.70;2.87;;;;;;;;;;5100345;28;20219;-53
2022/06/16 07:00:51;;;;;;;4.43;2.40;;;;;;;;;;5104548;28;20276;-53
2022/06/16 07:03:17;;;;;;;3.53;2.57;;;;;;;;;;5093566;28;20247;-53
2022/06/16 07:05:44;;;;;;;5.80;2.47;;;;;;;;;;5100443;28;20182;-53
2022/06/16 07:08:10;;;;;;;3.80;2.20;;;;;;;;;;5102442;28;20626;-53
2022/06/16 07:10:37;;;;;;;3.13;2.63;;;;;;;;;;5084840;28;20210;-53
2022/06/16 07:13:03;;;;;;;3.23;2.57;;;;;;;;;;5103665;28;20183;-52
2022/06/16 07:15:30;;;;;;;3.43;2.43;;;;;;;;;;5104415;28;20183;-52
2022/06/16 07:17:56;;;;;;;5.30;2.73;;;;;;;;;;5079933;28;20635;-52
2022/06/16 07:20:23;;;;;;;4.93;2.30;;;;;;;;;;5089223;28;20567;-53
2022/06/16 07:22:49;;;;;;;3.60;2.30;;;;;;;;;;5089027;28;20617;-52
2022/06/16 07:25:16;;;;;;;4.83;2.50;;;;;;;;;;5108170;28;20635;-52
2022/06/16 07:27:45;;;;;;;3.23;2.40;;;;;;;;;;5091454;28;20559;-52
2022/06/16 07:30:15;;;;;;;3.27;2.43;;;;;;;;;;5090739;28;20322;-53
2022/06/16 07:32:42;;;;;;;3.07;2.40;;;;;;;;;;5110311;28;20222;-52
2022/06/16 07:35:08;;;;;;;3.60;2.60;;;;;;;;;;5110896;28;20589;-52
2022/06/16 07:37:35;;;;;;;5.03;2.77;;;;;;;;;;5108820;28;20180;-52
2022/06/16 07:40:02;;;;;;;4.40;2.53;;;;;;;;;;5105051;28;20198;-52
2022/06/16 07:42:28;;;;;;;3.57;2.27;;;;;;;;;;5107529;28;20197;-52
2022/06/16 07:44:55;;;;;;;3.43;2.67;;;;;;;;;;5110248;28;20205;-52
2022/06/16 07:47:24;;;;;;;3.93;2.90;;;;;;;;;;5090830;28;20181;-52
2022/06/16 07:49:51;;;;;;;3.27;2.50;;;;;;;;;;5093146;28;20221;-52
2022/06/16 07:52:17;;;;;;;3.83;2.30;;;;;;;;;;5108225;28;20181;-52
2022/06/16 07:54:46;;;;;;;2.70;2.50;;;;;;;;;;5112304;27;21228;-52
2022/06/16 07:57:13;;;;;;;3.43;3.03;;;;;;;;;;5090437;28;20172;-52
2022/06/16 07:59:40;;;;;;;2.53;2.30;;;;;;;;;;5091805;28;20288;-52
2022/06/16 08:02:07;;;;;;;3.30;2.43;;;;;;;;;;5111228;28;20168;-52
2022/06/16 08:04:33;;;;;;;3.10;2.67;;;;;;;;;;5110522;28;20288;-52
2022/06/16 08:07:02;;;;;;;4.13;2.80;;;;;;;;;;5124994;27;20188;-52
2022/06/16 08:09:33;;;;;;;2.83;2.47;;;;;;;;;;5109714;28;20204;-52
2022/06/16 08:12:08;;;;;;;6.07;3.03;;;;;;;;;;5092164;28;20179;-52
2022/06/16 08:14:36;;;;;;;3.83;2.60;;;;;;;;;;5106908;27;20177;-52
2022/06/16 08:17:03;;;;;;;2.50;2.30;;;;;;;;;;5110832;28;20291;-51
2022/06/16 08:19:29;;;;;;;3.07;2.30;;;;;;;;;;5108625;27;20679;-52
2022/06/16 08:21:56;;;;;;;4.33;2.40;;;;;;;;;;5111014;27;20258;-51
2022/06/16 08:24:22;;;;;;;3.60;2.50;;;;;;;;;;5090644;28;20192;-50
2022/06/16 08:26:48;;;;;;;2.57;2.23;;;;;;;;;;5109908;28;20281;-51
2022/06/16 08:29:15;;;;;;;3.43;2.20;;;;;;;;;;5109421;28;20198;-51
2022/06/16 08:31:42;;;;;;;2.83;2.10;;;;;;;;;;5107277;28;20209;-50
2022/06/16 08:34:08;;;;;;;2.30;2.00;;;;;;;;;;5106538;28;20519;-51
2022/06/16 08:36:35;;;;;;;4.13;2.27;;;;;;;;;;5081114;28;20190;-50
2022/06/16 08:39:01;;;;;;;2.00;1.90;;;;;;;;;;5107965;27;20564;-50
2022/06/16 08:41:31;;;;;;;3.27;1.90;;;;;;;;;;5090302;27;20196;-51
2022/06/16 08:43:58;;;;;;;2.13;1.90;;;;;;;;;;5083767;28;20182;-50
2022/06/16 08:46:27;;;;;;;2.23;1.97;;;;;;;;;;5091724;27;20203;-50
2022/06/16 08:49:22;;;;;;;2.77;1.93;;;;;;;;;;5107133;28;20672;-50
2022/06/16 08:51:57;;;;;;;1.90;1.80;;;;;;;;;;5074586;28;20514;-50
2022/06/16 08:54:42;;;;;;;1.83;1.70;;;;;;;;;;5079853;28;20281;-50
2022/06/16 08:57:27;;;;;;;2.53;1.70;;;;;;;;;;5104590;27;20470;-51
2022/06/16 08:59:55;;;;;;;1.83;1.57;;;;;;;;;;5061870;28;20216;-51
2022/06/16 09:02:21;;;;;;;3.13;1.83;;;;;;;;;;5063967;28;20211;-51
2022/06/16 09:04:51;;;;;;;2.80;1.87;;;;;;;;;;5068746;28;20283;-50
2022/06/16 09:07:21;;;;;;;1.77;1.67;;;;;;;;;;5067706;28;20260;-52
2022/06/16 09:10:15;;;;;;;2.30;1.60;;;;;;;;;;5055324;28;20638;-51
2022/06/16 09:12:41;;;;;;;2.10;1.77;;;;;;;;;;5064284;28;20459;-51
2022/06/16 09:15:14;;;;;;;2.20;1.70;;;;;;;;;;5049191;28;20201;-52
2022/06/16 09:18:02;;;;;;;2.67;1.90;;;;;;;;;;5048355;28;20184;-51
2022/06/16 09:20:38;;;;;;;2.13;1.60;;;;;;;;;;5050123;28;20236;-51
2022/06/16 09:23:20;;;;;;;2.50;2.20;;;;;;;;;;5049946;28;20700;-52
2022/06/16 09:25:52;;;;;;;3.70;1.70;;;;;;;;;;5047858;28;21063;-51
2022/06/16 09:28:37;;;;;;;4.23;1.73;;;;;;;;;;5050097;28;20222;-52
2022/06/16 09:31:08;;;;;;;2.63;1.77;;;;;;;;;;5055974;28;20205;-51
2022/06/16 09:33:38;;;;;;;2.03;1.83;;;;;;;;;;5053182;28;20651;-51
2022/06/16 09:36:13;;;;;;;2.10;1.70;;;;;;;;;;5021247;28;20608;-52
2022/06/16 09:38:48;;;;;;;2.33;1.87;;;;;;;;;;5059711;28;20218;-52
2022/06/16 09:44:10;;;;;;;3.73;1.90;;;;;;;;;;5061495;28;20280;-53
2022/06/16 09:46:42;;;;;;;2.10;1.97;;;;;;;;;;5052077;28;20534;-52
2022/06/16 09:49:17;;;;;;;2.03;1.80;;;;;;;;;;5058133;28;20177;-52
2022/06/16 09:51:52;;;;;;;4.23;2.03;;;;;;;;;;5038469;28;20280;-52
2022/06/16 09:54:25;;;;;;;2.70;2.00;;;;;;;;;;5036750;28;21271;-53
2022/06/16 09:57:03;;;;;;;1.97;1.73;;;;;;;;;;5047954;28;20259;-50
2022/06/16 09:59:33;;;;;;;2.83;1.70;;;;;;;;;;5041994;28;20260;-51
2022/06/16 10:02:26;;;;;;;4.47;1.70;;;;;;;;;;5045648;28;20189;-51
2022/06/16 10:04:56;;;;;;;2.60;1.80;;;;;;;;;;5056736;28;20189;-51
2022/06/16 10:07:30;;;;;;;1.93;1.83;;;;;;;;;;5044799;28;20215;-51
2022/06/16 10:09:56;;;;;;;1.87;1.77;;;;;;;;;;5046051;28;20192;-50
2022/06/16 10:12:38;;;;;;;1.83;1.73;;;;;;;;;;5042836;28;20172;-50
2022/06/16 10:15:05;;;;;;;1.67;1.50;;;;;;;;;;5044239;28;20181;-51
2022/06/16 10:17:33;;;;;;;5.47;2.10;;;;;;;;;;5060180;28;20181;-50
2022/06/16 10:20:06;;;;;;;3.53;1.97;;;;;;;;;;5059606;28;20178;-51
2022/06/16 10:22:35;;;;;;;2.33;2.13;;;;;;;;;;5080122;28;20164;-50
2022/06/16 10:25:02;;;;;;;3.30;2.20;;;;;;;;;;5058635;28;20465;-51
2022/06/16 10:27:44;;;;;;;2.07;1.70;;;;;;;;;;5043149;28;20180;-50
2022/06/16 10:30:18;;;;;;;5.37;2.37;;;;;;;;;;5065707;28;20201;-51
2022/06/16 10:32:46;;;;;;;2.80;2.17;;;;;;;;;;5030920;28;20348;-50
2022/06/16 10:35:20;;;;;;;2.73;2.33;;;;;;;;;;5045996;28;20171;-50
2022/06/16 10:37:48;;;;;;;2.93;2.20;;;;;;;;;;5047995;28;20271;-50
2022/06/16 10:40:16;;;;;;;2.23;2.03;;;;;;;;;;5074668;28;20181;-50
2022/06/16 10:42:44;;;;;;;2.93;2.10;;;;;;;;;;5029223;28;20185;-51
2022/06/16 10:45:13;;;;;;;2.57;2.37;;;;;;;;;;5061019;28;20180;-50
2022/06/16 10:47:44;;;;;;;3.60;2.40;;;;;;;;;;5061425;28;20588;-51
2022/06/16 10:50:19;;;;;;;2.93;2.43;;;;;;;;;;5058448;28;20201;-52
2022/06/16 10:52:51;;;;;;;5.67;2.17;;;;;;;;;;5043174;28;20202;-50
2022/06/16 10:55:20;;;;;;;2.33;2.13;;;;;;;;;;5051654;28;20184;-49
2022/06/16 10:58:01;;;;;;;2.13;1.93;;;;;;;;;;5034990;28;20259;-51
2022/06/16 11:00:30;;;;;;;2.43;2.20;;;;;;;;;;5085832;28;20622;-50
2022/06/16 11:02:57;;;;;;;2.13;1.90;;;;;;;;;;5054535;28;20185;-49
2022/06/16 11:05:24;;;;;;;2.10;1.97;;;;;;;;;;5060552;28;20756;-49
2022/06/16 11:07:50;;;;;;;2.57;2.10;;;;;;;;;;5066463;28;20184;-50
2022/06/16 11:10:37;;;;;;;3.37;2.33;;;;;;;;;;5068407;28;20546;-51
2022/06/16 11:13:04;;;;;;;4.00;2.30;;;;;;;;;;5075084;28;20169;-49
2022/06/16 11:15:34;;;;;;;3.03;2.43;;;;;;;;;;5079356;28;20318;-50
2022/06/16 11:18:02;;;;;;;2.37;2.17;;;;;;;;;;5083252;28;20687;-50
2022/06/16 11:20:43;;;;;;;4.17;2.50;;;;;;;;;;5047977;28;20317;-50
2022/06/16 11:23:20;;;;;;;3.77;2.13;;;;;;;;;;5099503;28;20186;-50
2022/06/16 11:25:46;;;;;;;2.40;2.07;;;;;;;;;;5083394;28;20208;-49
2022/06/16 11:28:15;;;;;;;3.60;2.30;;;;;;;;;;5064803;28;20659;-49
2022/06/16 11:30:56;;;;;;;2.97;2.20;;;;;;;;;;5063758;28;20214;-52
2022/06/16 11:36:13;;;;;;;2.47;2.17;;;;;;;;;;5089061;28;20235;-52
2022/06/16 11:38:45;;;;;;;4.70;2.40;;;;;;;;;;5083298;28;20174;-53
2022/06/16 11:41:13;;;;;;;2.63;2.37;;;;;;;;;;5095817;28;21059;-52
2022/06/16 11:44:01;;;;;;;2.40;2.20;;;;;;;;;;5047330;28;20187;-53
2022/06/16 11:46:35;;;;;;;2.70;2.50;;;;;;;;;;5081572;28;20236;-52
2022/06/16 11:49:25;;;;;;;3.33;3.00;;;;;;;;;;5067279;28;20186;-52
2022/06/16 11:51:55;;;;;;;3.17;2.80;;;;;;;;;;5038645;28;20250;-52
2022/06/16 11:54:24;;;;;;;2.17;2.07;;;;;;;;;;5081423;28;20176;-53
2022/06/16 11:56:59;;;;;;;2.40;2.27;;;;;;;;;;5077829;28;20627;-53
2022/06/16 11:59:34;;;;;;;5.20;2.30;;;;;;;;;;5086808;28;20622;-52
2022/06/16 12:02:09;;;;;;;2.90;2.60;;;;;;;;;;5096877;28;20533;-52
2022/06/16 12:04:39;;;;;;;3.63;2.73;;;;;;;;;;5070885;28;20591;-52
2022/06/16 12:07:25;;;;;;;2.67;2.40;;;;;;;;;;5069004;28;20519;-52
2022/06/16 12:09:55;;;;;;;2.27;2.07;;;;;;;;;;5091263;28;20210;-52
2022/06/16 12:12:33;;;;;;;3.43;2.50;;;;;;;;;;5088151;28;20175;-52
2022/06/16 12:15:23;;;;;;;2.43;2.00;;;;;;;;;;5085689;28;21038;-52
2022/06/16 12:18:12;;;;;;;2.90;2.70;;;;;;;;;;5091140;28;20183;-50
2022/06/16 12:20:44;;;;;;;2.70;2.50;;;;;;;;;;5077108;28;20186;-52
2022/06/16 12:23:15;;;;;;;4.13;3.93;;;;;;;;;;5070389;28;20255;-52
2022/06/16 12:26:01;;;;;;;2.73;2.50;;;;;;;;;;5085282;28;20260;-52
2022/06/16 12:28:27;;;;;;;2.20;2.10;;;;;;;;;;5100415;28;20175;-52
2022/06/16 12:30:58;;;;;;;3.33;2.43;;;;;;;;;;5070682;28;20208;-52
2022/06/16 12:33:39;;;;;;;2.70;2.50;;;;;;;;;;5076422;28;20473;-51
2022/06/16 12:36:10;;;;;;;2.80;2.17;;;;;;;;;;5106819;28;20633;-52
2022/06/16 12:38:45;;;;;;;4.60;2.93;;;;;;;;;;5098916;28;20189;-51
2022/06/16 12:41:18;;;;;;;3.30;2.27;;;;;;;;;;5104839;28;20172;-52
2022/06/16 12:43:46;;;;;;;3.13;2.30;;;;;;;;;;5109276;28;20241;-51
2022/06/16 12:46:19;;;;;;;3.07;2.80;;;;;;;;;;5088919;28;20184;-52
2022/06/16 12:48:48;;;;;;;2.97;2.67;;;;;;;;;;5089284;28;20258;-52
2022/06/16 12:51:16;;;;;;;3.00;2.47;;;;;;;;;;5062695;28;20222;-52
2022/06/16 12:53:49;;;;;;;2.60;2.40;;;;;;;;;;5068660;28;20670;-52
2022/06/16 12:56:15;;;;;;;4.07;2.30;;;;;;;;;;5083620;28;20554;-52
2022/06/16 12:58:51;;;;;;;2.83;2.33;;;;;;;;;;5086558;28;20235;-53
2022/06/16 13:01:18;;;;;;;4.97;2.53;;;;;;;;;;5051446;28;20584;-53
2022/06/16 13:03:44;;;;;;;3.50;2.67;;;;;;;;;;5068970;28;20166;-52
2022/06/16 13:06:11;;;;;;;2.83;2.23;;;;;;;;;;5086670;28;20172;-53
2022/06/16 13:08:40;;;;;;;2.70;2.50;;;;;;;;;;5084752;28;20259;-53
2022/06/16 13:11:16;;;;;;;2.67;2.47;;;;;;;;;;5067014;28;20651;-52
2022/06/16 13:13:45;;;;;;;2.50;2.30;;;;;;;;;;5058755;28;20209;-52
2022/06/16 13:16:14;;;;;;;2.30;2.20;;;;;;;;;;5081131;28;20180;-52
2022/06/16 13:18:53;;;;;;;2.60;2.40;;;;;;;;;;5060128;28;20474;-52
2022/06/16 13:21:28;;;;;;;5.17;2.70;;;;;;;;;;5049120;28;20184;-51
2022/06/16 13:24:11;;;;;;;3.00;2.67;;;;;;;;;;5066897;28;20210;-51
2022/06/16 13:26:41;;;;;;;2.83;2.50;;;;;;;;;;5084421;28;20219;-52
2022/06/16 13:29:15;;;;;;;3.97;2.43;;;;;;;;;;5086630;28;20692;-53
2022/06/16 13:31:46;;;;;;;3.10;2.40;;;;;;;;;;5083192;28;20688;-53
2022/06/16 13:34:18;;;;;;;2.30;2.10;;;;;;;;;;5087399;28;20225;-52
2022/06/16 13:36:44;;;;;;;2.90;2.13;;;;;;;;;;5069781;28;20833;-51
2022/06/16 13:39:30;;;;;;;3.93;2.73;;;;;;;;;;5067510;28;20179;-51
2022/06/16 13:42:12;;;;;;;3.17;2.70;;;;;;;;;;5068075;28;20599;-51
2022/06/16 13:44:58;;;;;;;4.00;2.63;;;;;;;;;;5084151;28;20570;-51
2022/06/16 13:47:25;;;;;;;2.80;2.60;;;;;;;;;;5065242;28;20175;-52
2022/06/16 13:49:51;;;;;;;3.67;2.40;;;;;;;;;;5070969;28;20526;-52
2022/06/16 13:52:18;;;;;;;2.50;2.30;;;;;;;;;;5086988;28;20164;-52
2022/06/16 13:54:45;;;;;;;4.03;3.23;;;;;;;;;;5083501;28;20188;-52
2022/06/16 13:57:28;;;;;;;4.00;3.27;;;;;;;;;;5084590;28;20586;-51
2022/06/16 13:59:57;;;;;;;5.77;5.37;;;;;;;;;;5060637;28;20230;-53
2022/06/16 14:02:24;;;;;;;4.60;4.20;;;;;;;;;;5082492;28;20505;-53
2022/06/16 14:05:00;;;;;;;5.33;2.97;;;;;;;;;;5067920;28;20212;-51
2022/06/16 14:07:27;;;;;;;5.07;2.93;;;;;;;;;;5062452;28;20251;-51
2022/06/16 14:10:02;;;;;;;2.57;2.37;;;;;;;;;;5084188;28;20201;-51
2022/06/16 14:12:58;;;;;;;3.43;2.73;;;;;;;;;;5084505;28;20589;-52
2022/06/16 14:15:43;;;;;;;4.00;2.63;;;;;;;;;;5065587;28;20179;-52
2022/06/16 14:18:19;;;;;;;3.13;2.83;;;;;;;;;;5067703;28;20431;-51
2022/06/16 14:20:47;;;;;;;3.03;2.50;;;;;;;;;;5069951;28;20185;-53
2022/06/16 14:23:32;;;;;;;4.47;4.17;;;;;;;;;;5082750;28;20197;-52
2022/06/16 14:26:01;;;;;;;3.60;2.80;;;;;;;;;;5070023;28;20265;-52
2022/06/16 14:28:35;;;;;;;3.37;2.60;;;;;;;;;;5065755;28;20187;-52
2022/06/16 14:31:12;;;;;;;3.13;2.50;;;;;;;;;;5086270;28;20550;-53
2022/06/16 14:33:45;;;;;;;6.60;2.70;;;;;;;;;;5066505;28;20186;-53
2022/06/16 14:36:11;;;;;;;2.63;2.43;;;;;;;;;;5085817;28;20182;-53
2022/06/16 14:38:47;;;;;;;2.37;2.20;;;;;;;;;;5065104;28;20214;-52
2022/06/16 14:41:17;;;;;;;3.73;2.60;;;;;;;;;;5066110;28;20215;-52
2022/06/16 14:43:46;;;;;;;3.00;2.80;;;;;;;;;;5083734;28;20172;-52
2022/06/16 14:46:25;;;;;;;3.20;2.43;;;;;;;;;;5085730;28;20183;-53
2022/06/16 14:48:56;;;;;;;4.53;2.90;;;;;;;;;;5064415;28;20170;-52
2022/06/16 14:51:28;;;;;;;2.57;2.37;;;;;;;;;;5080849;28;20211;-52
2022/06/16 14:54:21;;;;;;;3.30;2.80;;;;;;;;;;5083989;28;20169;-52
2022/06/16 14:56:55;;;;;;;2.50;2.30;;;;;;;;;;5054129;28;20589;-51
2022/06/16 14:59:22;;;;;;;3.17;2.53;;;;;;;;;;5090316;28;20337;-50
2022/06/16 15:01:50;;;;;;;2.90;2.20;;;;;;;;;;5110877;27;20170;-52
2022/06/16 15:04:19;;;;;;;2.80;2.60;;;;;;;;;;5071933;28;20169;-53
2022/06/16 15:06:48;;;;;;;3.80;2.57;;;;;;;;;;5107302;28;20200;-52
2022/06/16 15:09:18;;;;;;;2.80;2.53;;;;;;;;;;5102002;28;20249;-52
2022/06/16 15:11:45;;;;;;;2.80;2.30;;;;;;;;;;5122271;27;20172;-52
2022/06/16 15:14:16;;;;;;;2.67;2.47;;;;;;;;;;5115001;27;20204;-52
2022/06/16 15:19:31;;;;;;;18.93;17.00;;;;;;;;;;5094710;28;20205;-51
2022/06/16 15:21:58;;;;;;;11.37;10.27;;;;;;;;;;5100092;28;20331;-52
2022/06/16 15:24:38;;;;;;;5.60;5.00;;;;;;;;;;5106254;28;20177;-51
2022/06/16 15:27:05;;;;;;;4.97;4.30;;;;;;;;;;5087053;28;20544;-51
2022/06/16 15:29:33;;;;;;;4.30;3.93;;;;;;;;;;5085973;28;20206;-51
2022/06/16 15:32:03;;;;;;;3.33;3.00;;;;;;;;;;5104283;28;20188;-52